sensor_id;sensor_type;location;lat;lon;timestamp;temperature;humidity
47022;DHT22;32779;52.264;6.154;2023-04-10T00:01:13;9.00;99.90
47022;DHT22;32779;52.264;6.154;2023-04-10T00:03:39;9.10;99.90
47022;DHT22;32779;52.264;6.154;2023-04-10T00:06:06;9.10;99.90
47022;DHT22;32779;52.264;6.154;2023-04-10T00:08:31;9.10;99.90
47022;DHT22;32779;52.264;6.154;2023-04-10T00:10:57;9.10;99.90
47022;DHT22;32779;52.264;6.154;2023-04-10T00:13:22;9.00;99.90
47022;DHT22;32779;52.264;6.154;2023-04-10T00:15:48;9.00;99.90
47022;DHT22;32779;52.264;6.154;2023-04-10T00:18:15;9.00;99.90
47022;DHT22;32779;52.264;6.154;2023-04-10T00:20:40;9.00;99.90
47022;DHT22;32779;52.264;6.154;2023-04-10T00:23:07;9.00;99.90
47022;DHT22;32779;52.264;6.154;2023-04-10T00:25:32;9.00;99.90
47022;DHT22;32779;52.264;6.154;2023-04-10T00:27:58;9.00;99.90
47022;DHT22;32779;52.264;6.154;2023-04-10T00:30:23;8.90;99.90
47022;DHT22;32779;52.264;6.154;2023-04-10T00:32:49;9.00;99.90
47022;DHT22;32779;52.264;6.154;2023-04-10T00:35:15;8.90;99.90
47022;DHT22;32779;52.264;6.154;2023-04-10T00:37:41;9.00;99.90
47022;DHT22;32779;52.264;6.154;2023-04-10T00:40:07;9.00;99.90
47022;DHT22;32779;52.264;6.154;2023-04-10T00:42:32;8.90;99.90
47022;DHT22;32779;52.264;6.154;2023-04-10T00:44:59;8.90;99.90
47022;DHT22;32779;52.264;6.154;2023-04-10T00:47:25;8.90;99.90
47022;DHT22;32779;52.264;6.154;2023-04-10T00:49:50;8.90;99.90
47022;DHT22;32779;52.264;6.154;2023-04-10T00:52:17;8.90;99.90
47022;DHT22;32779;52.264;6.154;2023-04-10T00:54:42;8.90;99.90
47022;DHT22;32779;52.264;6.154;2023-04-10T00:57:08;8.90;99.90
47022;DHT22;32779;52.264;6.154;2023-04-10T00:59:34;8.90;99.90
47022;DHT22;32779;52.264;6.154;2023-04-10T01:02:00;8.90;99.90
47022;DHT22;32779;52.264;6.154;2023-04-10T01:04:26;8.90;99.90
47022;DHT22;32779;52.264;6.154;2023-04-10T01:09:56;8.90;99.90
47022;DHT22;32779;52.264;6.154;2023-04-10T01:12:37;8.80;99.90
47022;DHT22;32779;52.264;6.154;2023-04-10T01:15:12;8.80;99.90
47022;DHT22;32779;52.264;6.154;2023-04-10T01:20:20;8.80;99.90
47022;DHT22;32779;52.264;6.154;2023-04-10T01:23:13;8.70;99.90
47022;DHT22;32779;52.264;6.154;2023-04-10T01:25:48;8.70;99.90
47022;DHT22;32779;52.264;6.154;2023-04-10T01:30:48;8.70;99.90
47022;DHT22;32779;52.264;6.154;2023-04-10T01:33:17;8.60;99.90
47022;DHT22;32779;52.264;6.154;2023-04-10T01:35:48;8.60;99.90
47022;DHT22;32779;52.264;6.154;2023-04-10T01:38:17;8.60;99.90
47022;DHT22;32779;52.264;6.154;2023-04-10T01:40:43;8.60;99.90
47022;DHT22;32779;52.264;6.154;2023-04-10T01:43:15;8.60;99.90
47022;DHT22;32779;52.264;6.154;2023-04-10T01:45:42;8.60;99.90
47022;DHT22;32779;52.264;6.154;2023-04-10T01:48:09;8.60;99.90
47022;DHT22;32779;52.264;6.154;2023-04-10T01:50:36;8.60;99.90
47022;DHT22;32779;52.264;6.154;2023-04-10T01:53:04;8.60;99.90
47022;DHT22;32779;52.264;6.154;2023-04-10T01:55:30;8.60;99.90
47022;DHT22;32779;52.264;6.154;2023-04-10T01:57:56;8.60;99.90
47022;DHT22;32779;52.264;6.154;2023-04-10T02:00:22;8.60;99.90
47022;DHT22;32779;52.264;6.154;2023-04-10T02:02:48;8.50;99.90
47022;DHT22;32779;52.264;6.154;2023-04-10T02:05:15;8.50;99.90
47022;DHT22;32779;52.264;6.154;2023-04-10T02:08:10;8.50;99.90
47022;DHT22;32779;52.264;6.154;2023-04-10T02:10:43;8.50;99.90
47022;DHT22;32779;52.264;6.154;2023-04-10T02:13:10;8.50;99.90
47022;DHT22;32779;52.264;6.154;2023-04-10T02:15:40;8.40;99.90
47022;DHT22;32779;52.264;6.154;2023-04-10T02:18:07;8.40;99.90
47022;DHT22;32779;52.264;6.154;2023-04-10T02:20:35;8.40;99.90
47022;DHT22;32779;52.264;6.154;2023-04-10T02:23:01;8.40;99.90
47022;DHT22;32779;52.264;6.154;2023-04-10T02:25:32;8.30;99.90
47022;DHT22;32779;52.264;6.154;2023-04-10T02:28:06;8.30;99.90
47022;DHT22;32779;52.264;6.154;2023-04-10T02:30:32;8.30;99.90
47022;DHT22;32779;52.264;6.154;2023-04-10T02:32:58;8.30;99.90
47022;DHT22;32779;52.264;6.154;2023-04-10T02:35:24;8.20;99.90
47022;DHT22;32779;52.264;6.154;2023-04-10T02:37:50;8.20;99.90
47022;DHT22;32779;52.264;6.154;2023-04-10T02:40:16;8.20;99.90
47022;DHT22;32779;52.264;6.154;2023-04-10T02:42:41;8.20;99.90
47022;DHT22;32779;52.264;6.154;2023-04-10T02:45:08;8.20;99.90
47022;DHT22;32779;52.264;6.154;2023-04-10T02:47:34;8.10;99.90
47022;DHT22;32779;52.264;6.154;2023-04-10T02:49:59;8.10;99.90
47022;DHT22;32779;52.264;6.154;2023-04-10T02:52:25;8.10;99.90
47022;DHT22;32779;52.264;6.154;2023-04-10T02:54:51;8.10;99.90
47022;DHT22;32779;52.264;6.154;2023-04-10T02:57:17;8.10;99.90
47022;DHT22;32779;52.264;6.154;2023-04-10T02:59:42;8.10;99.90
47022;DHT22;32779;52.264;6.154;2023-04-10T03:02:08;8.10;99.90
47022;DHT22;32779;52.264;6.154;2023-04-10T03:04:34;8.10;99.90
47022;DHT22;32779;52.264;6.154;2023-04-10T03:06:59;8.10;99.90
47022;DHT22;32779;52.264;6.154;2023-04-10T03:09:25;8.10;99.90
47022;DHT22;32779;52.264;6.154;2023-04-10T03:11:51;8.10;99.90
47022;DHT22;32779;52.264;6.154;2023-04-10T03:14:16;8.00;99.90
47022;DHT22;32779;52.264;6.154;2023-04-10T03:16:42;8.10;99.90
47022;DHT22;32779;52.264;6.154;2023-04-10T03:19:08;8.00;99.90
47022;DHT22;32779;52.264;6.154;2023-04-10T03:21:34;8.00;99.90
47022;DHT22;32779;52.264;6.154;2023-04-10T03:23:59;8.00;99.90
47022;DHT22;32779;52.264;6.154;2023-04-10T03:26:25;8.00;99.90
47022;DHT22;32779;52.264;6.154;2023-04-10T03:28:52;8.00;99.90
47022;DHT22;32779;52.264;6.154;2023-04-10T03:31:17;8.00;99.90
47022;DHT22;32779;52.264;6.154;2023-04-10T03:33:43;7.90;99.90
47022;DHT22;32779;52.264;6.154;2023-04-10T03:36:09;7.90;99.90
47022;DHT22;32779;52.264;6.154;2023-04-10T03:38:35;7.90;99.90
47022;DHT22;32779;52.264;6.154;2023-04-10T03:41:01;7.90;99.90
47022;DHT22;32779;52.264;6.154;2023-04-10T03:43:28;7.90;99.90
47022;DHT22;32779;52.264;6.154;2023-04-10T03:45:54;7.90;99.90
47022;DHT22;32779;52.264;6.154;2023-04-10T03:48:19;7.90;99.90
47022;DHT22;32779;52.264;6.154;2023-04-10T03:50:45;7.90;99.90
47022;DHT22;32779;52.264;6.154;2023-04-10T03:53:11;7.80;99.90
47022;DHT22;32779;52.264;6.154;2023-04-10T03:55:36;7.90;99.90
47022;DHT22;32779;52.264;6.154;2023-04-10T03:58:03;7.80;99.90
47022;DHT22;32779;52.264;6.154;2023-04-10T04:00:28;7.90;99.90
47022;DHT22;32779;52.264;6.154;2023-04-10T04:02:54;7.90;99.90
47022;DHT22;32779;52.264;6.154;2023-04-10T04:05:20;7.90;99.90
47022;DHT22;32779;52.264;6.154;2023-04-10T04:07:45;7.80;99.90
47022;DHT22;32779;52.264;6.154;2023-04-10T04:10:11;7.90;99.90
47022;DHT22;32779;52.264;6.154;2023-04-10T04:12:36;7.80;99.90
47022;DHT22;32779;52.264;6.154;2023-04-10T04:15:02;7.80;99.90
47022;DHT22;32779;52.264;6.154;2023-04-10T04:17:28;7.80;99.90
47022;DHT22;32779;52.264;6.154;2023-04-10T04:19:53;7.80;99.90
47022;DHT22;32779;52.264;6.154;2023-04-10T04:22:19;7.80;99.90
47022;DHT22;32779;52.264;6.154;2023-04-10T04:24:45;7.80;99.90
47022;DHT22;32779;52.264;6.154;2023-04-10T04:27:10;7.80;99.90
47022;DHT22;32779;52.264;6.154;2023-04-10T04:29:36;7.80;99.90
47022;DHT22;32779;52.264;6.154;2023-04-10T04:32:02;7.80;99.90
47022;DHT22;32779;52.264;6.154;2023-04-10T04:34:27;7.80;99.90
47022;DHT22;32779;52.264;6.154;2023-04-10T04:36:53;7.80;99.90
47022;DHT22;32779;52.264;6.154;2023-04-10T04:39:18;7.70;99.90
47022;DHT22;32779;52.264;6.154;2023-04-10T04:41:45;7.70;99.90
47022;DHT22;32779;52.264;6.154;2023-04-10T04:44:11;7.70;99.90
47022;DHT22;32779;52.264;6.154;2023-04-10T04:46:36;7.70;99.90
47022;DHT22;32779;52.264;6.154;2023-04-10T04:49:02;7.70;99.90
47022;DHT22;32779;52.264;6.154;2023-04-10T04:51:27;7.70;99.90
47022;DHT22;32779;52.264;6.154;2023-04-10T04:53:53;7.70;99.90
47022;DHT22;32779;52.264;6.154;2023-04-10T04:56:19;7.70;99.90
47022;DHT22;32779;52.264;6.154;2023-04-10T04:58:44;7.70;99.90
47022;DHT22;32779;52.264;6.154;2023-04-10T05:01:10;7.70;99.90
47022;DHT22;32779;52.264;6.154;2023-04-10T05:03:37;7.70;99.90
47022;DHT22;32779;52.264;6.154;2023-04-10T05:06:03;7.70;99.90
47022;DHT22;32779;52.264;6.154;2023-04-10T05:08:28;7.70;99.90
47022;DHT22;32779;52.264;6.154;2023-04-10T05:10:54;7.70;99.90
47022;DHT22;32779;52.264;6.154;2023-04-10T05:13:20;7.70;99.90
47022;DHT22;32779;52.264;6.154;2023-04-10T05:15:46;7.70;99.90
47022;DHT22;32779;52.264;6.154;2023-04-10T05:18:12;7.70;99.90
47022;DHT22;32779;52.264;6.154;2023-04-10T05:20:38;7.70;99.90
47022;DHT22;32779;52.264;6.154;2023-04-10T05:23:05;7.70;99.90
47022;DHT22;32779;52.264;6.154;2023-04-10T05:25:30;7.70;99.90
47022;DHT22;32779;52.264;6.154;2023-04-10T05:27:56;7.70;99.90
47022;DHT22;32779;52.264;6.154;2023-04-10T05:30:21;7.70;99.90
47022;DHT22;32779;52.264;6.154;2023-04-10T05:32:47;7.80;99.90
47022;DHT22;32779;52.264;6.154;2023-04-10T05:35:13;7.80;99.90
47022;DHT22;32779;52.264;6.154;2023-04-10T05:37:38;7.80;99.90
47022;DHT22;32779;52.264;6.154;2023-04-10T05:40:05;7.90;99.90
47022;DHT22;32779;52.264;6.154;2023-04-10T05:42:30;7.90;99.90
47022;DHT22;32779;52.264;6.154;2023-04-10T05:44:56;8.00;99.90
47022;DHT22;32779;52.264;6.154;2023-04-10T05:47:21;8.00;99.90
47022;DHT22;32779;52.264;6.154;2023-04-10T05:49:47;8.10;99.90
47022;DHT22;32779;52.264;6.154;2023-04-10T05:52:13;8.20;99.90
47022;DHT22;32779;52.264;6.154;2023-04-10T05:54:38;8.20;99.90
47022;DHT22;32779;52.264;6.154;2023-04-10T05:57:04;8.20;99.90
47022;DHT22;32779;52.264;6.154;2023-04-10T05:59:29;8.20;99.90
47022;DHT22;32779;52.264;6.154;2023-04-10T06:01:58;8.30;99.90
47022;DHT22;32779;52.264;6.154;2023-04-10T06:04:23;8.40;99.90
47022;DHT22;32779;52.264;6.154;2023-04-10T06:06:49;8.40;99.90
47022;DHT22;32779;52.264;6.154;2023-04-10T06:09:15;8.40;99.90
47022;DHT22;32779;52.264;6.154;2023-04-10T06:11:41;8.50;99.90
47022;DHT22;32779;52.264;6.154;2023-04-10T06:14:06;8.50;99.90
47022;DHT22;32779;52.264;6.154;2023-04-10T06:16:32;8.50;99.90
47022;DHT22;32779;52.264;6.154;2023-04-10T06:18:57;8.60;99.90
47022;DHT22;32779;52.264;6.154;2023-04-10T06:21:23;8.70;99.90
47022;DHT22;32779;52.264;6.154;2023-04-10T06:23:49;8.70;99.90
47022;DHT22;32779;52.264;6.154;2023-04-10T06:26:15;8.80;99.90
47022;DHT22;32779;52.264;6.154;2023-04-10T06:28:41;8.80;99.90
47022;DHT22;32779;52.264;6.154;2023-04-10T06:31:07;8.90;99.90
47022;DHT22;32779;52.264;6.154;2023-04-10T06:33:32;9.00;99.90
47022;DHT22;32779;52.264;6.154;2023-04-10T06:36:01;9.10;99.90
47022;DHT22;32779;52.264;6.154;2023-04-10T06:38:28;9.30;99.90
47022;DHT22;32779;52.264;6.154;2023-04-10T06:40:53;9.40;99.90
47022;DHT22;32779;52.264;6.154;2023-04-10T06:43:19;9.50;99.90
47022;DHT22;32779;52.264;6.154;2023-04-10T06:45:45;9.60;99.90
47022;DHT22;32779;52.264;6.154;2023-04-10T06:48:10;9.60;99.90
47022;DHT22;32779;52.264;6.154;2023-04-10T06:50:36;9.60;99.90
47022;DHT22;32779;52.264;6.154;2023-04-10T06:53:02;9.70;99.90
47022;DHT22;32779;52.264;6.154;2023-04-10T06:55:28;9.80;99.90
47022;DHT22;32779;52.264;6.154;2023-04-10T06:57:53;9.80;99.90
47022;DHT22;32779;52.264;6.154;2023-04-10T07:00:21;9.90;99.90
47022;DHT22;32779;52.264;6.154;2023-04-10T07:02:47;10.00;99.90
47022;DHT22;32779;52.264;6.154;2023-04-10T07:05:14;10.10;99.90
47022;DHT22;32779;52.264;6.154;2023-04-10T07:07:40;10.20;99.90
47022;DHT22;32779;52.264;6.154;2023-04-10T07:10:06;10.40;99.90
47022;DHT22;32779;52.264;6.154;2023-04-10T07:12:32;10.50;99.90
47022;DHT22;32779;52.264;6.154;2023-04-10T07:14:58;10.50;99.90
47022;DHT22;32779;52.264;6.154;2023-04-10T07:17:24;10.60;99.90
47022;DHT22;32779;52.264;6.154;2023-04-10T07:19:49;10.70;99.90
47022;DHT22;32779;52.264;6.154;2023-04-10T07:22:15;10.90;99.90
47022;DHT22;32779;52.264;6.154;2023-04-10T07:24:40;11.10;99.90
47022;DHT22;32779;52.264;6.154;2023-04-10T07:27:06;11.20;99.90
47022;DHT22;32779;52.264;6.154;2023-04-10T07:29:32;11.40;99.90
47022;DHT22;32779;52.264;6.154;2023-04-10T07:31:57;11.50;99.90
47022;DHT22;32779;52.264;6.154;2023-04-10T07:34:23;11.60;99.90
47022;DHT22;32779;52.264;6.154;2023-04-10T07:36:50;11.70;99.90
47022;DHT22;32779;52.264;6.154;2023-04-10T07:39:15;11.80;99.90
47022;DHT22;32779;52.264;6.154;2023-04-10T07:41:41;11.90;99.90
47022;DHT22;32779;52.264;6.154;2023-04-10T07:44:07;11.90;99.90
47022;DHT22;32779;52.264;6.154;2023-04-10T07:46:33;11.90;99.90
47022;DHT22;32779;52.264;6.154;2023-04-10T07:48:58;11.90;99.90
47022;DHT22;32779;52.264;6.154;2023-04-10T07:51:24;12.00;99.90
47022;DHT22;32779;52.264;6.154;2023-04-10T07:53:50;12.00;99.90
47022;DHT22;32779;52.264;6.154;2023-04-10T07:56:19;12.00;99.80
47022;DHT22;32779;52.264;6.154;2023-04-10T07:58:46;12.00;99.80
47022;DHT22;32779;52.264;6.154;2023-04-10T08:01:12;12.10;99.70
47022;DHT22;32779;52.264;6.154;2023-04-10T08:03:42;12.10;99.90
47022;DHT22;32779;52.264;6.154;2023-04-10T08:06:08;12.10;99.90
47022;DHT22;32779;52.264;6.154;2023-04-10T08:08:39;12.10;99.90
47022;DHT22;32779;52.264;6.154;2023-04-10T08:11:34;12.20;99.90
47022;DHT22;32779;52.264;6.154;2023-04-10T08:14:02;12.20;99.80
47022;DHT22;32779;52.264;6.154;2023-04-10T08:16:29;12.10;99.90
47022;DHT22;32779;52.264;6.154;2023-04-10T08:18:56;12.20;99.80
47022;DHT22;32779;52.264;6.154;2023-04-10T08:21:25;12.10;99.90
47022;DHT22;32779;52.264;6.154;2023-04-10T08:23:59;12.10;99.90
47022;DHT22;32779;52.264;6.154;2023-04-10T08:26:26;12.10;99.90
47022;DHT22;32779;52.264;6.154;2023-04-10T08:28:54;12.20;99.90
47022;DHT22;32779;52.264;6.154;2023-04-10T08:31:21;12.40;99.90
47022;DHT22;32779;52.264;6.154;2023-04-10T08:33:47;12.70;99.90
47022;DHT22;32779;52.264;6.154;2023-04-10T08:36:14;12.90;99.80
47022;DHT22;32779;52.264;6.154;2023-04-10T08:38:44;13.20;99.70
47022;DHT22;32779;52.264;6.154;2023-04-10T08:41:17;13.40;98.50
47022;DHT22;32779;52.264;6.154;2023-04-10T08:43:43;13.20;98.70
47022;DHT22;32779;52.264;6.154;2023-04-10T08:46:10;13.30;98.60
47022;DHT22;32779;52.264;6.154;2023-04-10T08:48:40;13.40;98.80
47022;DHT22;32779;52.264;6.154;2023-04-10T08:51:14;13.50;97.90
47022;DHT22;32779;52.264;6.154;2023-04-10T08:53:42;13.40;98.40
47022;DHT22;32779;52.264;6.154;2023-04-10T08:56:11;13.50;98.40
47022;DHT22;32779;52.264;6.154;2023-04-10T08:58:39;13.40;98.10
47022;DHT22;32779;52.264;6.154;2023-04-10T09:01:06;13.40;98.10
47022;DHT22;32779;52.264;6.154;2023-04-10T09:03:31;13.30;98.20
47022;DHT22;32779;52.264;6.154;2023-04-10T09:06:01;13.30;98.30
47022;DHT22;32779;52.264;6.154;2023-04-10T09:08:27;13.40;99.20
47022;DHT22;32779;52.264;6.154;2023-04-10T09:10:54;13.40;98.50
47022;DHT22;32779;52.264;6.154;2023-04-10T09:13:40;13.50;98.90
47022;DHT22;32779;52.264;6.154;2023-04-10T09:16:07;13.60;98.20
47022;DHT22;32779;52.264;6.154;2023-04-10T09:18:44;13.60;98.80
47022;DHT22;32779;52.264;6.154;2023-04-10T09:21:13;13.80;98.90
47022;DHT22;32779;52.264;6.154;2023-04-10T09:23:40;13.80;97.70
47022;DHT22;32779;52.264;6.154;2023-04-10T09:26:23;13.80;97.60
47022;DHT22;32779;52.264;6.154;2023-04-10T09:31:35;14.00;97.90
47022;DHT22;32779;52.264;6.154;2023-04-10T09:34:20;14.10;97.50
47022;DHT22;32779;52.264;6.154;2023-04-10T09:36:56;14.10;97.10
47022;DHT22;32779;52.264;6.154;2023-04-10T09:39:32;14.00;97.60
47022;DHT22;32779;52.264;6.154;2023-04-10T09:41:58;14.00;97.50
47022;DHT22;32779;52.264;6.154;2023-04-10T09:44:32;14.00;97.60
47022;DHT22;32779;52.264;6.154;2023-04-10T09:47:14;14.10;97.30
47022;DHT22;32779;52.264;6.154;2023-04-10T09:54:51;14.40;97.40
47022;DHT22;32779;52.264;6.154;2023-04-10T09:57:18;14.40;97.50
47022;DHT22;32779;52.264;6.154;2023-04-10T09:59:48;14.50;97.60
47022;DHT22;32779;52.264;6.154;2023-04-10T10:02:20;14.60;97.50
47022;DHT22;32779;52.264;6.154;2023-04-10T10:04:47;14.60;97.10
47022;DHT22;32779;52.264;6.154;2023-04-10T10:07:20;14.50;97.40
47022;DHT22;32779;52.264;6.154;2023-04-10T10:09:47;14.50;96.60
47022;DHT22;32779;52.264;6.154;2023-04-10T10:12:22;14.40;97.00
47022;DHT22;32779;52.264;6.154;2023-04-10T10:15:00;14.40;97.20
47022;DHT22;32779;52.264;6.154;2023-04-10T10:17:32;14.40;97.00
47022;DHT22;32779;52.264;6.154;2023-04-10T10:20:06;14.50;97.60
47022;DHT22;32779;52.264;6.154;2023-04-10T10:22:32;14.50;97.50
47022;DHT22;32779;52.264;6.154;2023-04-10T10:24:59;14.60;97.90
47022;DHT22;32779;52.264;6.154;2023-04-10T10:27:27;14.60;97.90
47022;DHT22;32779;52.264;6.154;2023-04-10T10:29:55;14.60;98.20
47022;DHT22;32779;52.264;6.154;2023-04-10T10:32:23;14.70;97.60
47022;DHT22;32779;52.264;6.154;2023-04-10T10:34:51;14.70;97.30
47022;DHT22;32779;52.264;6.154;2023-04-10T10:37:18;14.60;97.00
47022;DHT22;32779;52.264;6.154;2023-04-10T10:40:20;14.60;97.50
47022;DHT22;32779;52.264;6.154;2023-04-10T10:45:45;14.70;97.20
47022;DHT22;32779;52.264;6.154;2023-04-10T10:48:13;14.80;97.30
47022;DHT22;32779;52.264;6.154;2023-04-10T10:53:39;15.00;97.40
47022;DHT22;32779;52.264;6.154;2023-04-10T10:56:34;15.10;97.20
47022;DHT22;32779;52.264;6.154;2023-04-10T10:59:00;15.10;97.60
47022;DHT22;32779;52.264;6.154;2023-04-10T11:01:26;15.10;97.70
47022;DHT22;32779;52.264;6.154;2023-04-10T11:03:52;15.10;97.30
47022;DHT22;32779;52.264;6.154;2023-04-10T11:06:47;15.10;97.00
47022;DHT22;32779;52.264;6.154;2023-04-10T11:09:48;15.00;97.30
47022;DHT22;32779;52.264;6.154;2023-04-10T11:12:15;15.00;97.20
47022;DHT22;32779;52.264;6.154;2023-04-10T11:14:42;15.00;97.00
47022;DHT22;32779;52.264;6.154;2023-04-10T11:17:09;14.90;97.10
47022;DHT22;32779;52.264;6.154;2023-04-10T11:19:57;15.00;97.70
47022;DHT22;32779;52.264;6.154;2023-04-10T11:22:26;15.00;97.30
47022;DHT22;32779;52.264;6.154;2023-04-10T11:24:57;15.10;97.40
47022;DHT22;32779;52.264;6.154;2023-04-10T11:27:43;15.20;97.30
47022;DHT22;32779;52.264;6.154;2023-04-10T11:30:31;15.20;97.40
47022;DHT22;32779;52.264;6.154;2023-04-10T11:32:58;15.30;97.70
47022;DHT22;32779;52.264;6.154;2023-04-10T11:35:25;15.40;97.50
47022;DHT22;32779;52.264;6.154;2023-04-10T11:37:51;15.50;97.10
47022;DHT22;32779;52.264;6.154;2023-04-10T11:40:17;15.50;97.70
47022;DHT22;32779;52.264;6.154;2023-04-10T11:42:42;15.60;96.90
47022;DHT22;32779;52.264;6.154;2023-04-10T11:45:23;15.70;97.40
47022;DHT22;32779;52.264;6.154;2023-04-10T11:47:52;15.70;96.70
47022;DHT22;32779;52.264;6.154;2023-04-10T11:50:19;15.70;97.00
47022;DHT22;32779;52.264;6.154;2023-04-10T11:52:48;15.80;96.70
47022;DHT22;32779;52.264;6.154;2023-04-10T11:55:13;15.90;96.40
47022;DHT22;32779;52.264;6.154;2023-04-10T11:57:41;15.90;96.70
47022;DHT22;32779;52.264;6.154;2023-04-10T12:00:07;15.90;96.30
47022;DHT22;32779;52.264;6.154;2023-04-10T12:02:33;16.00;96.90
47022;DHT22;32779;52.264;6.154;2023-04-10T12:04:58;16.00;96.80
47022;DHT22;32779;52.264;6.154;2023-04-10T12:07:25;16.10;96.80
47022;DHT22;32779;52.264;6.154;2023-04-10T12:09:57;16.20;97.10
47022;DHT22;32779;52.264;6.154;2023-04-10T12:12:35;16.30;96.90
47022;DHT22;32779;52.264;6.154;2023-04-10T12:15:02;16.30;96.60
47022;DHT22;32779;52.264;6.154;2023-04-10T12:17:28;16.30;97.40
47022;DHT22;32779;52.264;6.154;2023-04-10T12:19:54;16.40;97.00
47022;DHT22;32779;52.264;6.154;2023-04-10T12:22:20;16.40;96.90
47022;DHT22;32779;52.264;6.154;2023-04-10T12:24:47;16.40;96.20
47022;DHT22;32779;52.264;6.154;2023-04-10T12:27:24;16.40;96.50
47022;DHT22;32779;52.264;6.154;2023-04-10T12:29:52;16.40;96.70
47022;DHT22;32779;52.264;6.154;2023-04-10T12:32:18;16.40;96.20
47022;DHT22;32779;52.264;6.154;2023-04-10T12:34:56;16.40;96.80
47022;DHT22;32779;52.264;6.154;2023-04-10T12:37:23;16.40;97.00
47022;DHT22;32779;52.264;6.154;2023-04-10T12:39:49;16.50;97.00
47022;DHT22;32779;52.264;6.154;2023-04-10T12:42:20;16.50;97.00
47022;DHT22;32779;52.264;6.154;2023-04-10T12:44:55;16.60;97.10
47022;DHT22;32779;52.264;6.154;2023-04-10T12:47:22;16.70;97.20
47022;DHT22;32779;52.264;6.154;2023-04-10T12:50:08;16.80;96.00
47022;DHT22;32779;52.264;6.154;2023-04-10T12:52:35;16.90;96.20
47022;DHT22;32779;52.264;6.154;2023-04-10T12:55:27;17.00;95.70
47022;DHT22;32779;52.264;6.154;2023-04-10T12:57:53;17.10;95.90
47022;DHT22;32779;52.264;6.154;2023-04-10T13:00:19;17.10;95.60
47022;DHT22;32779;52.264;6.154;2023-04-10T13:02:46;16.90;95.80
47022;DHT22;32779;52.264;6.154;2023-04-10T13:05:12;16.90;95.70
47022;DHT22;32779;52.264;6.154;2023-04-10T13:07:38;16.90;95.90
47022;DHT22;32779;52.264;6.154;2023-04-10T13:10:04;16.90;96.00
47022;DHT22;32779;52.264;6.154;2023-04-10T13:12:30;16.90;96.50
47022;DHT22;32779;52.264;6.154;2023-04-10T13:14:56;17.00;96.40
47022;DHT22;32779;52.264;6.154;2023-04-10T13:17:24;17.00;96.30
47022;DHT22;32779;52.264;6.154;2023-04-10T13:19:50;16.90;96.10
47022;DHT22;32779;52.264;6.154;2023-04-10T13:22:17;16.90;95.90
47022;DHT22;32779;52.264;6.154;2023-04-10T13:24:43;16.90;96.20
47022;DHT22;32779;52.264;6.154;2023-04-10T13:27:09;16.80;96.60
47022;DHT22;32779;52.264;6.154;2023-04-10T13:29:35;16.80;96.60
47022;DHT22;32779;52.264;6.154;2023-04-10T13:32:02;16.70;96.70
47022;DHT22;32779;52.264;6.154;2023-04-10T13:34:33;16.70;97.10
47022;DHT22;32779;52.264;6.154;2023-04-10T13:36:58;16.60;96.90
47022;DHT22;32779;52.264;6.154;2023-04-10T13:39:25;16.60;96.80
47022;DHT22;32779;52.264;6.154;2023-04-10T13:41:50;16.50;96.90
47022;DHT22;32779;52.264;6.154;2023-04-10T13:44:16;16.40;97.00
47022;DHT22;32779;52.264;6.154;2023-04-10T13:46:41;16.40;96.60
47022;DHT22;32779;52.264;6.154;2023-04-10T13:49:07;16.30;96.50
47022;DHT22;32779;52.264;6.154;2023-04-10T13:51:33;16.20;96.80
47022;DHT22;32779;52.264;6.154;2023-04-10T13:53:58;16.20;97.30
47022;DHT22;32779;52.264;6.154;2023-04-10T13:56:24;16.20;96.70
47022;DHT22;32779;52.264;6.154;2023-04-10T13:58:49;16.20;96.90
47022;DHT22;32779;52.264;6.154;2023-04-10T14:01:15;16.20;96.90
47022;DHT22;32779;52.264;6.154;2023-04-10T14:03:40;16.20;96.90
47022;DHT22;32779;52.264;6.154;2023-04-10T14:06:06;16.10;97.10
47022;DHT22;32779;52.264;6.154;2023-04-10T14:08:32;16.10;97.30
47022;DHT22;32779;52.264;6.154;2023-04-10T14:10:57;16.10;97.00
47022;DHT22;32779;52.264;6.154;2023-04-10T14:13:23;16.10;97.30
47022;DHT22;32779;52.264;6.154;2023-04-10T14:15:48;16.00;96.70
47022;DHT22;32779;52.264;6.154;2023-04-10T14:18:16;16.00;97.00
47022;DHT22;32779;52.264;6.154;2023-04-10T14:20:42;16.00;97.30
47022;DHT22;32779;52.264;6.154;2023-04-10T14:23:09;16.00;96.70
47022;DHT22;32779;52.264;6.154;2023-04-10T14:25:41;16.00;97.00
47022;DHT22;32779;52.264;6.154;2023-04-10T14:28:06;16.00;97.10
47022;DHT22;32779;52.264;6.154;2023-04-10T14:30:32;15.90;97.40
47022;DHT22;32779;52.264;6.154;2023-04-10T14:32:58;15.90;98.10
47022;DHT22;32779;52.264;6.154;2023-04-10T14:35:23;15.90;98.00
47022;DHT22;32779;52.264;6.154;2023-04-10T14:37:49;15.80;98.20
47022;DHT22;32779;52.264;6.154;2023-04-10T14:40:14;15.80;97.90
47022;DHT22;32779;52.264;6.154;2023-04-10T14:42:40;15.70;97.40
47022;DHT22;32779;52.264;6.154;2023-04-10T14:45:07;15.70;97.50
47022;DHT22;32779;52.264;6.154;2023-04-10T14:47:32;15.70;97.30
47022;DHT22;32779;52.264;6.154;2023-04-10T14:49:58;15.70;96.90
47022;DHT22;32779;52.264;6.154;2023-04-10T14:52:24;15.80;97.20
47022;DHT22;32779;52.264;6.154;2023-04-10T14:54:49;15.80;97.20
47022;DHT22;32779;52.264;6.154;2023-04-10T14:57:15;15.80;97.00
47022;DHT22;32779;52.264;6.154;2023-04-10T14:59:41;15.80;97.10
47022;DHT22;32779;52.264;6.154;2023-04-10T15:02:07;15.80;96.80
47022;DHT22;32779;52.264;6.154;2023-04-10T15:04:32;15.80;96.50
47022;DHT22;32779;52.264;6.154;2023-04-10T15:06:58;15.80;96.80
47022;DHT22;32779;52.264;6.154;2023-04-10T15:09:23;15.90;96.80
47022;DHT22;32779;52.264;6.154;2023-04-10T15:11:49;15.90;96.50
47022;DHT22;32779;52.264;6.154;2023-04-10T15:14:15;15.90;96.90
47022;DHT22;32779;52.264;6.154;2023-04-10T15:16:40;15.90;96.90
47022;DHT22;32779;52.264;6.154;2023-04-10T15:19:06;16.00;97.00
47022;DHT22;32779;52.264;6.154;2023-04-10T15:21:32;16.00;97.40
47022;DHT22;32779;52.264;6.154;2023-04-10T15:23:57;16.00;97.50
47022;DHT22;32779;52.264;6.154;2023-04-10T15:26:23;16.00;97.70
47022;DHT22;32779;52.264;6.154;2023-04-10T15:28:48;16.00;98.00
47022;DHT22;32779;52.264;6.154;2023-04-10T15:31:14;15.90;98.20
47022;DHT22;32779;52.264;6.154;2023-04-10T15:33:40;15.90;99.60
47022;DHT22;32779;52.264;6.154;2023-04-10T15:36:06;15.80;99.90
47022;DHT22;32779;52.264;6.154;2023-04-10T15:38:35;15.70;99.90
47022;DHT22;32779;52.264;6.154;2023-04-10T15:41:09;15.50;99.90
47022;DHT22;32779;52.264;6.154;2023-04-10T15:43:35;15.30;99.90
47022;DHT22;32779;52.264;6.154;2023-04-10T15:46:01;15.10;99.90
47022;DHT22;32779;52.264;6.154;2023-04-10T15:48:27;14.90;99.90
47022;DHT22;32779;52.264;6.154;2023-04-10T15:50:53;14.70;99.90
47022;DHT22;32779;52.264;6.154;2023-04-10T15:53:19;14.50;99.90
47022;DHT22;32779;52.264;6.154;2023-04-10T15:55:44;14.30;99.90
47022;DHT22;32779;52.264;6.154;2023-04-10T15:58:10;14.10;99.90
47022;DHT22;32779;52.264;6.154;2023-04-10T16:00:35;14.00;99.90
47022;DHT22;32779;52.264;6.154;2023-04-10T16:03:01;13.80;99.90